createdAt,value
2023-06-11T03:00:57.040Z,23.20
2023-06-11T03:03:25.192Z,23.20
2023-06-11T03:05:55.125Z,23.20
2023-06-11T03:08:23.451Z,23.10
2023-06-11T03:10:51.917Z,23.00
2023-06-11T03:13:21.287Z,23.00
2023-06-11T03:15:52.507Z,22.90
2023-06-11T03:18:21.884Z,23.00
2023-06-11T03:20:50.364Z,23.00
2023-06-11T03:23:18.282Z,22.90
2023-06-11T03:25:46.655Z,22.90
2023-06-11T03:28:15.056Z,22.90
2023-06-11T03:30:42.963Z,22.90
2023-06-11T03:33:10.898Z,22.90
2023-06-11T03:35:40.696Z,22.90
2023-06-11T03:38:19.884Z,22.90
2023-06-11T03:40:48.246Z,22.90
2023-06-11T03:43:16.854Z,22.80
2023-06-11T03:45:46.364Z,22.70
2023-06-11T03:48:14.934Z,22.70
2023-06-11T03:50:44.428Z,22.70
2023-06-11T03:53:12.394Z,22.70
2023-06-11T03:55:40.280Z,22.70
2023-06-11T03:58:09.545Z,22.80
2023-06-11T04:00:37.673Z,22.80
2023-06-11T04:03:05.798Z,22.80
2023-06-11T04:05:38.104Z,22.80
2023-06-11T04:08:08.742Z,22.80
2023-06-11T04:10:36.656Z,22.80
2023-06-11T04:13:04.984Z,22.80
2023-06-11T04:15:33.613Z,22.80
2023-06-11T04:18:06.433Z,22.90
2023-06-11T04:20:34.527Z,22.90
2023-06-11T04:23:02.578Z,22.90
2023-06-11T04:25:32.711Z,22.90
2023-06-11T04:28:02.143Z,22.80
2023-06-11T04:30:32.624Z,22.80
2023-06-11T04:33:04.502Z,22.80
2023-06-11T04:35:35.636Z,22.90
2023-06-11T04:38:06.634Z,22.90
2023-06-11T04:40:38.261Z,22.90
2023-06-11T04:43:08.738Z,23.00
2023-06-11T04:45:37.305Z,23.10
2023-06-11T04:48:06.672Z,23.00
2023-06-11T04:50:38.448Z,23.10
2023-06-11T04:53:07.944Z,23.20
2023-06-11T04:55:39.743Z,23.20
2023-06-11T04:58:10.228Z,23.20
2023-06-11T05:00:38.669Z,23.30
2023-06-11T05:03:08.090Z,23.30
2023-06-11T05:05:36.682Z,23.30
2023-06-11T05:08:06.744Z,23.30
2023-06-11T05:10:35.443Z,23.30
2023-06-11T05:13:03.647Z,23.40
2023-06-11T05:15:33.300Z,23.40
2023-06-11T05:18:01.714Z,23.40
2023-06-11T05:20:31.082Z,23.30
2023-06-11T05:23:00.799Z,23.30
2023-06-11T05:25:32.672Z,23.30
2023-06-11T05:28:04.026Z,23.40
2023-06-11T05:30:37.788Z,23.40
2023-06-11T05:33:08.232Z,23.40
2023-06-11T05:35:36.274Z,23.40
2023-06-11T05:38:04.718Z,23.50
2023-06-11T05:40:33.010Z,23.50
2023-06-11T05:43:01.319Z,23.50
2023-06-11T05:45:32.764Z,23.50
2023-06-11T05:48:03.983Z,23.60
2023-06-11T05:50:35.438Z,23.60
2023-06-11T05:53:03.973Z,23.70
2023-06-11T05:55:32.147Z,23.70
2023-06-11T05:58:01.037Z,23.60
2023-06-11T06:00:29.053Z,23.70
2023-06-11T06:02:57.174Z,23.70
2023-06-11T06:05:30.899Z,23.60
2023-06-11T06:07:59.320Z,23.70
2023-06-11T06:10:27.426Z,23.80
2023-06-11T06:12:55.547Z,23.80
2023-06-11T06:15:23.825Z,23.80
2023-06-11T06:17:51.828Z,23.80
2023-06-11T06:20:27.829Z,23.80
2023-06-11T06:22:57.052Z,23.80
2023-06-11T06:25:25.887Z,23.90
2023-06-11T06:27:55.202Z,23.90
2023-06-11T06:30:23.288Z,24.00
2023-06-11T06:32:51.557Z,24.00
2023-06-11T06:35:20.372Z,24.10
2023-06-11T06:37:48.574Z,24.10
2023-06-11T06:40:18.331Z,24.10
2023-06-11T06:42:46.308Z,24.10
2023-06-11T06:45:18.842Z,24.20
2023-06-11T06:47:46.976Z,24.20
2023-06-11T06:50:15.328Z,24.20
2023-06-11T06:52:44.372Z,24.30
2023-06-11T06:55:12.530Z,24.30
2023-06-11T06:57:42.094Z,24.20
2023-06-11T07:00:12.751Z,24.20
2023-06-11T07:02:40.998Z,24.30
2023-06-11T07:05:09.703Z,24.30
2023-06-11T07:07:39.484Z,24.40
2023-06-11T07:10:10.577Z,24.40
2023-06-11T07:12:39.751Z,24.40
2023-06-11T07:15:10.010Z,24.40
2023-06-11T07:17:38.403Z,24.40
2023-06-11T07:20:09.100Z,24.50
2023-06-11T07:22:37.855Z,24.50
2023-06-11T07:25:07.876Z,24.60
2023-06-11T07:27:36.329Z,24.60
2023-06-11T07:30:04.802Z,24.70
2023-06-11T07:32:34.143Z,24.70
2023-06-11T07:35:02.134Z,24.80
2023-06-11T07:37:30.045Z,24.80
2023-06-11T07:39:57.989Z,24.90
2023-06-11T07:42:25.938Z,24.90
2023-06-11T07:44:54.793Z,25.00
2023-06-11T07:47:23.622Z,25.00
2023-06-11T07:49:52.901Z,25.10
2023-06-11T07:52:21.855Z,25.10
2023-06-11T07:54:50.998Z,25.20
2023-06-11T07:57:18.879Z,25.20
2023-06-11T07:59:46.762Z,25.30
2023-06-11T08:02:15.595Z,25.30
2023-06-11T08:04:43.637Z,25.40
2023-06-11T08:07:13.478Z,25.40
2023-06-11T08:09:41.631Z,25.40
2023-06-11T08:12:12.648Z,25.40
2023-06-11T08:14:40.536Z,25.50
2023-06-11T08:17:09.652Z,25.50
2023-06-11T08:19:37.604Z,25.50
2023-06-11T08:22:05.981Z,25.60
2023-06-11T08:24:35.533Z,25.70
2023-06-11T08:27:03.931Z,25.70
2023-06-11T08:29:32.080Z,25.70
2023-06-11T08:32:00.022Z,25.80
2023-06-11T08:34:27.926Z,25.80
2023-06-11T08:36:55.925Z,25.80
2023-06-11T08:39:23.965Z,25.80
2023-06-11T08:41:53.285Z,25.80
2023-06-11T08:44:23.049Z,25.90
2023-06-11T08:46:53.094Z,26.00
2023-06-11T08:49:23.250Z,26.00
2023-06-11T08:51:52.036Z,26.10
2023-06-11T08:54:19.948Z,26.10
2023-06-11T08:56:47.869Z,26.10
2023-06-11T08:59:17.295Z,26.20
2023-06-11T09:01:51.704Z,26.20
2023-06-11T09:04:20.132Z,26.30
2023-06-11T09:06:52.298Z,26.30
2023-06-11T09:09:20.641Z,26.30
2023-06-11T09:11:48.789Z,26.30
2023-06-11T09:14:18.140Z,26.40
2023-06-11T09:16:48.905Z,26.30
2023-06-11T09:19:18.590Z,26.40
2023-06-11T09:21:51.626Z,26.40
2023-06-11T09:24:20.621Z,26.50
2023-06-11T09:26:54.217Z,26.50
2023-06-11T09:29:23.914Z,26.60
2023-06-11T09:32:03.563Z,26.60
2023-06-11T09:34:33.743Z,26.70
2023-06-11T09:37:03.270Z,26.70
2023-06-11T09:39:31.754Z,26.90
2023-06-11T09:41:59.658Z,26.90
2023-06-11T09:44:29.646Z,26.90
2023-06-11T09:46:57.661Z,26.90
2023-06-11T09:49:26.642Z,27.00
2023-06-11T09:51:55.516Z,27.10
2023-06-11T09:54:23.903Z,27.10
2023-06-11T09:56:51.984Z,27.20
2023-06-11T09:59:20.206Z,27.20
2023-06-11T10:01:51.701Z,27.30
2023-06-11T10:04:19.628Z,27.40
2023-06-11T10:06:51.226Z,27.50
2023-06-11T10:09:20.648Z,27.50
2023-06-11T10:11:49.231Z,27.60
2023-06-11T10:14:18.063Z,27.70
2023-06-11T10:16:52.107Z,27.90
2023-06-11T10:19:20.356Z,28.00
2023-06-11T10:21:50.760Z,28.40
2023-06-11T10:24:23.810Z,28.70
2023-06-11T10:27:09.399Z,29.00
2023-06-11T10:29:41.045Z,29.30
2023-06-11T10:32:21.543Z,29.60
2023-06-11T10:34:54.669Z,29.80
2023-06-11T10:37:29.103Z,30.00
2023-06-11T10:39:57.295Z,30.10
2023-06-11T10:42:26.509Z,30.30
2023-06-11T10:44:58.679Z,30.50
2023-06-11T10:47:30.158Z,30.60
2023-06-11T10:50:07.976Z,30.60
2023-06-11T10:52:49.622Z,30.80
2023-06-11T10:55:18.237Z,31.00
2023-06-11T10:57:46.254Z,31.30
2023-06-11T11:00:15.057Z,31.50
2023-06-11T11:02:45.162Z,31.60
2023-06-11T11:05:13.583Z,31.70
2023-06-11T11:07:45.721Z,31.80
2023-06-11T11:10:16.525Z,31.90
2023-06-11T11:12:46.104Z,32.00
2023-06-11T11:15:14.787Z,32.20
2023-06-11T11:17:44.973Z,32.20
2023-06-11T11:20:18.350Z,32.30
2023-06-11T11:22:52.904Z,32.50
2023-06-11T11:25:23.015Z,32.60
2023-06-11T11:27:51.050Z,32.80
2023-06-11T11:30:19.541Z,32.80
2023-06-11T11:32:49.097Z,32.90
2023-06-11T11:35:16.987Z,33.20
2023-06-11T11:37:48.228Z,33.10
2023-06-11T11:40:20.611Z,33.10
2023-06-11T11:42:51.077Z,33.30
2023-06-11T11:45:19.390Z,33.30
2023-06-11T11:47:52.697Z,33.40
2023-06-11T11:50:23.848Z,33.60
2023-06-11T11:53:05.843Z,33.40
2023-06-11T11:55:47.818Z,33.30
2023-06-11T11:58:24.520Z,33.10
2023-06-11T12:00:53.844Z,33.30
2023-06-11T12:03:24.836Z,33.70
2023-06-11T12:06:00.861Z,34.00
2023-06-11T12:08:30.253Z,33.80
2023-06-11T12:10:58.718Z,34.00
2023-06-11T12:13:27.071Z,34.30
2023-06-11T12:15:55.572Z,34.70
2023-06-11T12:18:24.846Z,34.60
2023-06-11T12:20:54.139Z,34.20
2023-06-11T12:23:22.497Z,34.50
2023-06-11T12:25:50.438Z,34.80
2023-06-11T12:28:19.914Z,35.20
2023-06-11T12:30:47.835Z,35.60
2023-06-11T12:33:17.005Z,35.90
2023-06-11T12:35:46.476Z,36.20
2023-06-11T12:38:15.737Z,36.50
2023-06-11T12:40:43.676Z,36.40
2023-06-11T12:43:11.618Z,36.40
2023-06-11T12:45:39.796Z,36.70
2023-06-11T12:48:08.022Z,37.40
2023-06-11T12:50:36.007Z,38.20
2023-06-11T12:53:05.851Z,38.50
2023-06-11T12:55:33.930Z,38.80
2023-06-11T12:58:01.966Z,38.80
2023-06-11T13:00:31.172Z,39.40
2023-06-11T13:02:59.642Z,39.80
2023-06-11T13:05:27.883Z,40.10
2023-06-11T13:07:55.976Z,39.70
2023-06-11T13:10:26.827Z,39.30
2023-06-11T13:12:56.137Z,38.30
2023-06-11T13:15:24.065Z,38.20
2023-06-11T13:17:51.973Z,39.00
2023-06-11T13:20:21.861Z,39.70
2023-06-11T13:22:50.566Z,40.50
2023-06-11T13:25:18.649Z,41.10
2023-06-11T13:27:48.239Z,42.00
2023-06-11T13:30:16.684Z,42.20
2023-06-11T13:32:44.859Z,42.20
2023-06-11T13:35:12.965Z,42.40
2023-06-11T13:37:41.114Z,43.00
2023-06-11T13:40:10.872Z,43.10
2023-06-11T13:42:39.162Z,43.40
2023-06-11T13:45:09.197Z,44.00
2023-06-11T13:47:37.137Z,44.00
2023-06-11T13:50:05.425Z,43.90
2023-06-11T13:52:33.368Z,43.80
2023-06-11T13:55:01.236Z,43.70
2023-06-11T13:57:32.098Z,42.80
2023-06-11T14:00:00.640Z,43.10
2023-06-11T14:02:30.531Z,43.00
2023-06-11T14:04:58.433Z,43.70
2023-06-11T14:07:26.810Z,43.50
2023-06-11T14:09:55.369Z,44.00
2023-06-11T14:12:23.285Z,43.60
2023-06-11T14:14:51.349Z,43.60
2023-06-11T14:17:19.519Z,43.90
2023-06-11T14:19:48.828Z,44.10
2023-06-11T14:22:17.889Z,43.80
2023-06-11T14:24:45.971Z,43.80
2023-06-11T14:27:15.336Z,44.20
2023-06-11T14:29:43.264Z,44.90
2023-06-11T14:32:14.105Z,44.60
2023-06-11T14:34:43.137Z,44.50
2023-06-11T14:37:12.531Z,44.30
2023-06-11T14:39:41.394Z,44.50
2023-06-11T14:42:09.715Z,44.90
2023-06-11T14:44:37.633Z,45.70
2023-06-11T14:47:06.637Z,45.80
2023-06-11T14:49:34.641Z,45.60
2023-06-11T14:52:09.594Z,45.80
2023-06-11T14:54:39.409Z,45.70
2023-06-11T14:57:14.617Z,46.00
2023-06-11T14:59:43.080Z,46.50
2023-06-11T15:02:12.086Z,46.70
2023-06-11T15:04:40.697Z,46.80
2023-06-11T15:07:20.336Z,46.80
2023-06-11T15:09:58.426Z,47.20
2023-06-11T15:12:26.326Z,47.60
2023-06-11T15:14:54.193Z,48.10
2023-06-11T15:17:23.073Z,47.80
2023-06-11T15:19:51.000Z,47.80
2023-06-11T15:22:18.923Z,47.30
2023-06-11T15:24:46.868Z,47.20
2023-06-11T15:27:18.291Z,46.40
2023-06-11T15:29:46.375Z,45.50
2023-06-11T15:32:16.905Z,44.90
2023-06-11T15:34:45.017Z,44.80
2023-06-11T15:37:13.034Z,45.30
2023-06-11T15:39:40.976Z,45.20
2023-06-11T15:42:08.983Z,45.50
2023-06-11T15:44:38.192Z,45.80
2023-06-11T15:47:07.124Z,45.00
2023-06-11T15:49:35.030Z,44.20
2023-06-11T15:52:02.979Z,42.70
2023-06-11T15:54:30.899Z,41.00
2023-06-11T15:56:58.805Z,39.90
2023-06-11T15:59:26.690Z,38.60
2023-06-11T16:01:55.990Z,37.70
2023-06-11T16:04:24.992Z,37.10
2023-06-11T16:06:52.986Z,36.50
2023-06-11T16:09:20.861Z,36.10
2023-06-11T16:11:48.841Z,36.00
2023-06-11T16:14:16.785Z,35.60
2023-06-11T16:16:44.848Z,35.40
2023-06-11T16:19:14.123Z,35.10
2023-06-11T16:21:42.047Z,34.90
2023-06-11T16:24:10.424Z,34.70
2023-06-11T16:26:38.355Z,34.60
2023-06-11T16:29:06.417Z,34.50
2023-06-11T16:31:34.374Z,34.40
2023-06-11T16:34:02.468Z,34.30
2023-06-11T16:36:31.681Z,34.10
2023-06-11T16:39:13.055Z,34.00
2023-06-11T16:41:48.270Z,33.80
2023-06-11T16:44:16.200Z,33.60
2023-06-11T16:46:44.125Z,33.50
2023-06-11T16:49:12.167Z,33.30
2023-06-11T16:51:41.520Z,33.20
2023-06-11T16:54:09.836Z,33.20
2023-06-11T16:56:37.731Z,33.10
2023-06-11T16:59:05.695Z,33.00
2023-06-11T17:01:33.739Z,32.90
2023-06-11T17:04:01.716Z,32.80
2023-06-11T17:06:30.143Z,32.70
2023-06-11T17:08:59.508Z,32.70
2023-06-11T17:11:27.773Z,32.80
2023-06-11T17:13:55.698Z,32.90
2023-06-11T17:16:23.658Z,33.10
2023-06-11T17:18:51.642Z,33.30
2023-06-11T17:21:19.951Z,33.70
2023-06-11T17:23:47.858Z,34.10
2023-06-11T17:26:17.784Z,34.60
2023-06-11T17:28:45.722Z,35.00
2023-06-11T17:31:13.934Z,35.60
2023-06-11T17:33:41.997Z,35.90
2023-06-11T17:36:09.940Z,35.90
2023-06-11T17:38:37.970Z,35.70
2023-06-11T17:41:05.911Z,35.50
2023-06-11T17:43:35.375Z,35.00
2023-06-11T17:46:03.323Z,34.40
2023-06-11T17:48:31.932Z,33.90
2023-06-11T17:50:59.855Z,33.40
2023-06-11T17:53:27.818Z,32.90
2023-06-11T17:55:55.705Z,32.60
2023-06-11T17:58:23.832Z,32.30
2023-06-11T18:00:53.031Z,32.00
2023-06-11T18:03:21.126Z,31.70
2023-06-11T18:05:49.001Z,31.50
2023-06-11T18:08:17.190Z,31.40
2023-06-11T18:10:45.080Z,31.30
2023-06-11T18:13:12.951Z,31.10
2023-06-11T18:15:42.502Z,31.00
2023-06-11T18:18:12.280Z,30.90
2023-06-11T18:20:40.166Z,30.80
2023-06-11T18:23:08.071Z,30.70
2023-06-11T18:25:36.000Z,30.60
2023-06-11T18:28:03.978Z,30.60
2023-06-11T18:30:31.872Z,30.50
2023-06-11T18:32:59.798Z,30.40
2023-06-11T18:35:29.145Z,30.30
2023-06-11T18:37:57.349Z,30.30
2023-06-11T18:40:25.252Z,30.20
2023-06-11T18:42:53.246Z,30.10
2023-06-11T18:45:21.155Z,30.10
2023-06-11T18:47:49.092Z,30.00
2023-06-11T18:50:17.141Z,30.00
2023-06-11T18:52:46.359Z,29.80
2023-06-11T18:55:14.298Z,29.80
2023-06-11T18:57:42.210Z,29.70
2023-06-11T19:00:12.138Z,29.70
2023-06-11T19:02:40.430Z,29.60
2023-06-11T19:05:09.279Z,29.60
2023-06-11T19:07:40.455Z,29.50
2023-06-11T19:10:12.252Z,29.60
2023-06-11T19:12:41.071Z,29.50
2023-06-11T19:15:09.779Z,29.50
2023-06-11T19:17:37.783Z,29.40
2023-06-11T19:20:08.753Z,29.20
2023-06-11T19:22:36.830Z,29.20
2023-06-11T19:25:05.309Z,29.10
2023-06-11T19:27:34.561Z,29.00
2023-06-11T19:30:02.523Z,28.90
2023-06-11T19:32:30.413Z,28.90
2023-06-11T19:34:58.288Z,28.70
2023-06-11T19:37:26.172Z,28.70
2023-06-11T19:39:55.298Z,28.60
2023-06-11T19:42:23.254Z,28.60
2023-06-11T19:44:52.494Z,28.50
2023-06-11T19:47:20.500Z,28.40
2023-06-11T19:49:48.734Z,28.30
2023-06-11T19:52:16.712Z,28.30
2023-06-11T19:54:51.259Z,28.20
2023-06-11T19:57:20.473Z,28.20
2023-06-11T19:59:49.530Z,28.00
2023-06-11T20:02:19.140Z,27.90
2023-06-11T20:04:47.485Z,27.80
2023-06-11T20:07:16.676Z,27.70
2023-06-11T20:09:46.127Z,27.60
2023-06-11T20:12:14.192Z,27.50
2023-06-11T20:14:42.093Z,27.40
2023-06-11T20:17:09.972Z,27.30
2023-06-11T20:19:39.889Z,27.30
2023-06-11T20:22:08.346Z,27.20
2023-06-11T20:24:36.471Z,27.10
2023-06-11T20:27:04.539Z,27.00
2023-06-11T20:29:32.437Z,26.80
2023-06-11T20:32:00.524Z,26.80
2023-06-11T20:34:28.459Z,26.80
2023-06-11T20:36:57.685Z,26.80
2023-06-11T20:39:25.593Z,26.80
2023-06-11T20:41:54.402Z,26.80
2023-06-11T20:44:22.334Z,26.80
2023-06-11T20:46:50.271Z,26.80
2023-06-11T20:49:18.199Z,26.80
2023-06-11T20:51:46.072Z,26.80
2023-06-11T20:54:15.707Z,26.70
2023-06-11T20:56:43.595Z,26.70
2023-06-11T20:59:11.830Z,26.60
2023-06-11T21:01:39.819Z,26.60
2023-06-11T21:04:07.973Z,26.60
2023-06-11T21:06:38.771Z,26.50
2023-06-11T21:09:07.121Z,26.50
2023-06-11T21:11:36.377Z,26.40
2023-06-11T21:14:14.344Z,26.30
2023-06-11T21:16:43.110Z,26.30
2023-06-11T21:19:11.561Z,26.30
2023-06-11T21:21:39.456Z,26.10
2023-06-11T21:24:08.076Z,26.10
2023-06-11T21:26:37.620Z,26.00
2023-06-11T21:29:05.980Z,26.00
2023-06-11T21:31:34.126Z,25.90
2023-06-11T21:34:02.410Z,25.90
2023-06-11T21:36:30.359Z,25.80
2023-06-11T21:38:58.239Z,25.80
2023-06-11T21:41:26.134Z,25.70
2023-06-11T21:43:55.363Z,25.70
2023-06-11T21:46:23.323Z,25.70
2023-06-11T21:48:51.243Z,25.60
2023-06-11T21:51:19.230Z,25.50
2023-06-11T21:53:47.108Z,25.50
2023-06-11T21:56:15.016Z,25.50
2023-06-11T21:58:42.891Z,25.50
